AirNav   ATP
 
 296 users online  

14PS Hideaway Ultralight Flightpark
Quarryville, Pennsylvania, USA

GOING TO QUARRYVILLE?


FAA INFORMATION EFFECTIVE 20 JULY 2017

Location

FAA Identifier: 14PS
Lat/Long: 39-53-04.0000N / 076-07-07.0000W
39-53.066667N / 076-07.116667W
39.8844444 / -76.1186111
(estimated)
Elevation: 630 ft. / 192 m (estimated)
From city: 3 miles SE of QUARRYVILLE, PA
Time zone: UTC -4 (UTC -5 during Standard Time)
Zip code: 17566

Ultralight Flight Park Operations

Ultralight Flight Park use: Private use. Permission required prior to landing
Activation date: 08/2004
Control tower: no
ARTCC: NEW YORK CENTER
FSS: NEW YORK FLIGHT SERVICE STATION
Attendance: UNATNDD
Wind indicator: yes
Segmented circle: no

Ultralight Flight Park Communications

WX AWOS-3 at MQS (13 nm NE): 126.25 (610-384-6132)
WX ASOS at LNS (16 nm NW): PHONE 717-569-8860

Nearby radio navigation aids

VOR radial/distance  VOR name  Freq  Var
LRPr160/16.2LANCASTER VOR/DME117.3009W
MXEr273/20.7MODENA VORTAC113.2009W
PPMr015/25.2PHILLIPS VOR/DME108.4009W
DQOr308/26.6DUPONT VORTAC114.0010W
PTWr241/32.7POTTSTOWN VORTAC116.5009W

 
NDB name  Hdg/Dist  Freq  Var  ID
ABERDEEN008/20.934910WAPG .- .--. --.
BELLGROVE159/38.632810WBZJ -... --.. .---

Ultralight Flight Park Services

Runway Information

Runway 10/28

Dimensions: 1140 x 100 ft. / 347 x 30 m
Surface: turf
RUNWAY 10  RUNWAY 28
Traffic pattern: leftleft
Displaced threshold: 627 ft.300 ft.
Obstructions: treesroad

Ultralight Flight Park Ownership and Management from official FAA records

Ownership: Privately-owned
Owner: TERRY K. FRANTZ
258 HESS RD.
QUARRYVILLE, PA 17566
Phone 717-786-1565
Manager: TERRY K. FRANTZ
258 HESS RD.
QUARRYVILLE, PA 17566
Phone 717-786-1565

Ultralight Flight Park Operational Statistics

Aircraft based on the field: 1
Ultralights: 1
    

Instrument Procedures

There are no published instrument procedures at 14PS.

Some nearby airports with instrument procedures:

KMQS - Chester County G O Carlson Airport (13 nm NE)
N57 - New Garden Airport (16 nm E)
KLNS - Lancaster Airport (16 nm NW)
0W3 - Harford County Airport (19 nm S)
58M - Claremont Airport (22 nm SE)
 
Loc | Ops | Rwys | IFR | FBO | Links
Com | Nav | Svcs | Stats | Notes


 
Area around 14PS (Hideaway Ultralight Flightpark)
 
Road maps at: MapQuest Bing Google
 
Aerial photo
No photo
 
Sectional chart

 
Airport distance calculator
Flying to Hideaway Ultralight Flightpark? Find the distance to fly.

From to 14PS

Sunrise and sunset
Times for 26-Jul-2017
 Local
(UTC-4)
 Zulu
(UTC)
Morning civil twilight05:2809:28
Sunrise05:5909:59
Sunset20:2300:23
Evening civil twilight20:5400:54

Current date and time
Zulu (UTC)  26-Jul-2017 07:46:17
Local (UTC-4)  26-Jul-2017 03:46:17
 
METAR
KMQS 
13nm NE 
260735Z AUTO 00000KT 9SM BKN006 BKN011 OVC060 19/18 A3022 RMK AO2
KLNS 
16nm NW 
260740Z AUTO 09003KT 10SM FEW016 BKN034 OVC065 19/19 A3020 RMK AO2 T01940189
KAPG 
25nm S 
260709Z AUTO 08004KT 10SM OVC012 21/19 A3019 RMK AO2 RAE09 SLP226
TAF
KLNS 
16nm NW 
260525Z 2606/2706 00000KT P6SM SCT030 BKN070 FM260730 36003KT P6SM BKN025 FM260900 VRB03KT 3SM BR OVC018 FM261330 13004KT P6SM BKN025 FM261500 17006KT P6SM BKN050
NOTAMs
Click for the latest NOTAMs
NOTAMs are issued by the DoD/FAA and will open in a separate window not controlled by AirNav.

 

 
 

Would you like to see your business listed on this page?

 If your business provides an interesting product or service to pilots, flight crews, aircraft, or users of the Hideaway Ultralight Flightpark, you should consider listing it here.  To start the listing process, click on the button below
 
Add a business
 

Other Pages about Hideaway Ultralight Flightpark

Update a link
 
Copyright © AirNav, LLC. All rights reserved. Privacy Policy  Contact